Maria Desgagnes — VCWL — position and weather

sailwx.info

Track history (hours):
 
Tides and Currents Weather Stations Pressure Air Temp Water Temp Dewpoint Dewpoint Depression Visibility Wind Speed Wind Dir Waves Ship Positions

Maria Desgagnes

Last reported at 2018-Feb-20 09:00 UTC. Time now 2018-Feb-20 11:50 UTC.
Position N 49°48' W 065°24'.

Length 120 m; draft 7.2 m.

Type: Ship. MMSI: 316285000.

Wind from 360 at 14 knots

Barometer 1025.4 mb
Air temperature -2.6 ° C
Dewpoint -1.5 ° C
Water temperature -1.1 ° C

Date/timePositionNaut miles runAvg speedWind from/ knotsBaromVisibWave heightAir tempDewpointWater temp
2018-Feb-20 09:00N 49°48' W 065°24'3712.3 360 / 141025.4 -2.6-1.5-1.1
2018-Feb-20 06:00N 50°00' W 064°30'4314.3 300 / 151020.1 -1.3-0.2-1.2
2018-Feb-20 03:00N 49°54' W 063°24'4113.5 210 / 171019.5 -0.9 0.3-1.1
2018-Feb-20 00:00N 49°42' W 062°24'4113.6 210 / 201022.3 -1.8-0.6-1.1
2018-Feb-19 21:00N 49°30' W 061°24'4715.5 200 / 191026.3 -2.9-1.7-1.1
2018-Feb-19 18:00N 49°12' W 060°18'4314.4 220 / 171028.7 -2.6-1.4-0.9
2018-Feb-19 15:00N 49°12' W 059°12'3914.0 230 / 161031.5 -2.7-1.5-0.4
2018-Feb-19 12:14N 49°05' W 058°14'315.1
2018-Feb-19 12:00N 49°04' W 058°09'3178.0
2018-Feb-19 12:00N 49°06' W 058°06'715.0 140 / 51031.7 -5.3-4.2-0.0
2018-Feb-19 11:30N 48°59' W 058°03'2 4.1
2018-Feb-19 11:00N 48°58' W 058°01'0 0.0
2018-Feb-19 10:29N 48°58' W 058°01'0 0.0
2018-Feb-19 10:00N 48°58' W 058°01'0 0.0
2018-Feb-19 09:30N 48°58' W 058°01'0 0.0
2018-Feb-19 09:00N 48°58' W 058°01'4264.5
2018-Feb-19 09:00N 48°54' W 058°00'4 8.1 100 / 31029.2 -7.4-6.4
2018-Feb-19 08:31N 48°58' W 058°01'0 0.0
2018-Feb-19 08:00N 48°58' W 058°01'0 0.0
2018-Feb-19 07:30N 48°58' W 058°01'0 0.0
2018-Feb-19 07:01N 48°58' W 058°01'0 0.0
2018-Feb-19 06:30N 48°58' W 058°01'4 7.7
2018-Feb-19 06:00N 48°54' W 058°00'42002.8 130 / 21026.9 -7.7-6.6
2018-Feb-19 05:59N 48°58' W 058°01'0 0.0
2018-Feb-19 05:30N 48°58' W 058°01'0 0.0
2018-Feb-19 05:00N 48°58' W 058°01'0 0.0
2018-Feb-19 04:30N 48°58' W 058°01'0 0.0
2018-Feb-19 04:01N 48°58' W 058°01'0 0.0
2018-Feb-19 03:30N 48°58' W 058°01'0 0.0
2018-Feb-19 03:01N 48°58' W 058°01'4229.8
2018-Feb-19 03:00N 48°54' W 058°00'4 8.0 100 / 51024.3 -8.2-7.2
2018-Feb-19 02:30N 48°58' W 058°01'0 0.0
2018-Feb-19 01:59N 48°58' W 058°01'0 0.0
2018-Feb-19 01:27N 48°58' W 058°01'0 0.0
2018-Feb-19 01:00N 48°58' W 058°01'0 0.0
2018-Feb-19 00:31N 48°58' W 058°01'0 0.0
2018-Feb-19 00:00N 48°58' W 058°01'4298.3
2018-Feb-19 00:00N 48°54' W 058°00'4 8.1 170 / 11022.6 -8.0-6.9
2018-Feb-18 23:31N 48°58' W 058°01'0 0.0
2018-Feb-18 23:00N 48°58' W 058°01'0 0.0
2018-Feb-18 22:30N 48°58' W 058°01'0 0.0
2018-Feb-18 22:00N 48°58' W 058°01'0 0.0
2018-Feb-18 21:29N 48°58' W 058°01'0 0.0
2018-Feb-18 21:01N 48°58' W 058°01'4229.8
2018-Feb-18 21:00N 48°54' W 058°00'4 8.1 300 / 31021.1 -5.9-4.9
2018-Feb-18 20:31N 48°58' W 058°01'0 0.0
2018-Feb-18 20:00N 48°58' W 058°01'0 0.0
2018-Feb-18 19:31N 48°58' W 058°01'0 0.0
2018-Feb-18 19:00N 48°58' W 058°01'0 0.0
2018-Feb-18 18:30N 48°58' W 058°01'0 0.0
2018-Feb-18 18:00N 48°58' W 058°01'4667.6
2018-Feb-18 18:00N 48°54' W 058°00'4 7.7 190 / 41021.3 -6.3-5.3
2018-Feb-18 17:29N 48°58' W 058°01'0 0.0
2018-Feb-18 17:00N 48°58' W 058°01'0 0.0
2018-Feb-18 16:30N 48°58' W 058°01'0 0.0
2018-Feb-18 16:00N 48°58' W 058°01'0 0.0
2018-Feb-18 15:22N 48°58' W 058°01'0 0.0
2018-Feb-18 15:00N 48°58' W 058°01'4238.0
2018-Feb-18 15:00N 48°54' W 058°00'4 7.9 190 / 41024.3 -8.7-7.7
2018-Feb-18 14:30N 48°58' W 058°01'0 0.0
2018-Feb-18 14:00N 48°58' W 058°01'0 0.0
2018-Feb-18 13:30N 48°58' W 058°01'0 0.0
2018-Feb-18 12:14N 48°58' W 058°01'416.6
2018-Feb-18 12:00N 48°54' W 058°00'445.7 190 / 91025.0 -11.4-10.4
2018-Feb-18 11:54N 48°58' W 058°01'0 0.1
2018-Feb-18 11:30N 48°58' W 058°01'2 4.6
2018-Feb-18 11:00N 48°59' W 058°04'2 4.9
2018-Feb-18 10:31N 49°01' W 058°06'9 6.1
2018-Feb-18 09:00N 49°06' W 058°18'0 0.0 240 / 101025.5 -8.9-7.9
2018-Feb-18 06:00N 49°06' W 058°18'51 8.5 270 / 91025.8 -9.7-8.6
2018-Feb-18 00:00N 49°06' W 059°36'4815.9 300 / 231024.6 -11.5-10.5-0.4
2018-Feb-17 21:00N 49°00' W 060°48'4013.3 280 / 191024.3 -12.7-11.7-1.2
2018-Feb-17 18:00N 48°54' W 061°48'4013.3 280 / 181022.1 -13.4-12.4-1.2
2018-Feb-17 15:00N 48°48' W 062°48'4013.3 310 / 261020.5 -14.5-13.5-1.2
2018-Feb-17 12:00N 48°42' W 063°48'24 8.2 310 / 311018.0 -14.4-13.4-1.1
2018-Feb-17 09:00N 48°48' W 064°24'0 0.0 320 / 271012.6 -13.4-12.4
2018-Feb-17 06:00N 48°48' W 064°24'0 0.0 300 / 341004.8 -11.4-10.4
2018-Feb-17 03:00N 48°48' W 064°24'0 0.0 310 / 311000.3 -7.9-6.9
2018-Feb-17 00:00N 48°48' W 064°24'0 0.0 310 / 20999.1 -4.4-3.3
2018-Feb-16 21:00N 48°48' W 064°24'10 3.3 310 / 15997.0 -1.3-0.2-0.7
2018-Feb-16 18:00N 48°42' W 064°12'3812.6 350 / 11995.5 -0.7 0.4-1.0
2018-Feb-16 15:00N 49°18' W 064°30'4514.9 290 / 31995.5 -0.5 0.7-1.0
2018-Feb-16 12:00N 49°30' W 065°36'4214.1 260 / 31994.4 -0.8 0.4-1.1
2018-Feb-16 09:00N 49°54' W 066°30'13 4.3 330 / 6992.6 -2.2-1.1-1.1
2018-Feb-16 06:00N 50°00' W 066°48'0 0.0 070 / 12994.6 -2.8-1.6
2018-Feb-16 03:00N 50°00' W 066°48'0 0.0 070 / 15998.8 -3.0-1.9
2018-Feb-16 00:00N 50°00' W 066°48'7 2.4 080 / 141001.9 -3.3-2.2-0.4
2018-Feb-15 21:00N 49°54' W 066°54'0 0.0 080 / 91004.6 -3.6-2.5-0.9
2018-Feb-15 18:00N 49°54' W 066°54'0 0.0 170 / 41007.1 -2.2-1.1
2018-Feb-15 15:00N 49°54' W 066°54'12 4.0 100 / 21008.8 -2.8-1.6
2018-Feb-15 12:00N 49°42' W 066°54'4515.1 240 / 91008.8 -2.2-1.0-1.0
2018-Feb-15 09:00N 49°06' W 067°36'8313.8 280 / 81009.1 -1.5-0.3-0.9
2018-Feb-15 03:00N 48°18' W 069°18'4314.4 230 / 81010.2 -0.7 0.5 0.4
2018-Feb-15 00:00N 47°42' W 069°54'4113.8 210 / 201011.3 0.7 1.9-0.1
2018-Feb-14 21:00N 47°12' W 070°36'3112.2 220 / 231011.6 2.3 3.5 0.1
2018-Feb-14 18:29N 46°50' W 071°08'4 7.6
2018-Feb-14 18:00N 46°48' W 071°12'0 0.0 220 / 91015.7 -3.5-2.4 0.5
2018-Feb-14 15:00N 46°48' W 071°12'0 0.0 210 / 71019.6 -7.4-6.3
2018-Feb-14 12:00N 46°48' W 071°12'0 0.0 190 / 21021.1 -10.9-9.9
2018-Feb-14 09:00N 46°48' W 071°12'0 0.0 200 / 11023.9 -10.8-9.8
2018-Feb-14 06:00N 46°48' W 071°12'0 0.0 190 / 31028.7 -10.1-9.1
2018-Feb-14 03:00N 46°48' W 071°12'0 0.0 210 / 51032.3 -9.5-8.5
2018-Feb-14 00:00N 46°48' W 071°12'0 0.0 220 / 91036.0 -8.0-6.9
2018-Feb-13 21:00N 46°48' W 071°12'0 0.0 260 / 41038.8 -7.4-6.3
2018-Feb-13 18:00N 46°48' W 071°12'0 0.0 210 / 61042.2 -9.9-8.9 0.5
2018-Feb-13 15:00N 46°48' W 071°12'0 0.0 250 / 41044.4 -12.4-11.4
2018-Feb-13 12:00N 46°48' W 071°12'0 0.0 270 / 61043.2 -15.5-14.6
2018-Feb-13 09:00N 46°48' W 071°12'0 0.0 230 / 61040.5 -14.0-13.0
2018-Feb-13 06:00N 46°48' W 071°12'0 0.0 260 / 61038.5 -11.7-10.7
2018-Feb-13 03:00N 46°48' W 071°12'0 0.0 240 / 81035.3 -9.7-8.7
2018-Feb-13 00:00N 46°48' W 071°12'0 0.0 260 / 61031.4 -7.5-6.4
2018-Feb-12 21:00N 46°48' W 071°12'0 0.0 260 / 101027.0 -4.8-3.7
2018-Feb-12 18:00N 46°48' W 071°12'0 0.0 250 / 111024.3 -4.8-3.7
2018-Feb-12 15:00N 46°48' W 071°12'0 0.0 240 / 131022.3 -5.5-4.4
2018-Feb-12 12:00N 46°48' W 071°12'0 0.0 240 / 111018.0 -4.4-3.3
2018-Feb-12 06:00N 46°48' W 071°12'0 0.0 210 / 11006.5 -1.8-0.6
2018-Feb-12 03:00N 46°48' W 071°12'0 0.0 050 / 41005.4 -2.6-1.5
2018-Feb-12 00:00N 46°48' W 071°12'0 0.0 050 / 231009.5 -4.8-3.7
2018-Feb-11 18:00N 46°48' W 071°12'0 0.0 060 / 211021.6 -5.4-4.3
2018-Feb-11 15:00N 46°48' W 071°12'0 0.0 050 / 181025.0 -5.1-4.0
2018-Feb-11 12:00N 46°48' W 071°12'0 0.0 070 / 181024.5 -4.6-3.5
2018-Feb-11 06:00N 46°48' W 071°12'0 0.0 280 / 41022.3 -5.2-4.1
2018-Feb-11 03:00N 46°48' W 071°12'0 0.0 220 / 31022.0 -5.2-4.1
2018-Feb-11 00:00N 46°48' W 071°12'0 0.0 280 / 31021.9 -5.2-4.1
2018-Feb-10 21:00N 46°48' W 071°12'0 0.0 220 / 31020.8 -5.6-4.5
2018-Feb-10 18:00N 46°48' W 071°12'0 0.0 1022.1 -5.3-4.2
2018-Feb-10 15:00N 46°48' W 071°12'0 0.0 060 / 51024.3 -7.0-6.0
2018-Feb-10 12:00N 46°48' W 071°12'0 0.0 040 / 51024.9 -8.7-7.6
2018-Feb-10 09:00N 46°48' W 071°12'   050 / 21025.7 -9.9-8.9
Track history (hours):
 
Tides and Currents Weather Stations Pressure Air Temp Water Temp Dewpoint Dewpoint Depression Visibility Wind Speed Wind Dir Waves Ship Positions

Maria Desgagnes

Last reported at 2018-Feb-20 09:00 UTC. Time now 2018-Feb-20 11:50 UTC.
Position N 49°48' W 065°24'.

Length 120 m; draft 7.2 m.

Type: Ship. MMSI: 316285000.

Wind from 360 at 14 knots

Barometer 1025.4 mb
Air temperature -2.6 ° C
Dewpoint -1.5 ° C
Water temperature -1.1 ° C

Date/timePositionNaut miles runAvg speedWind from/ knotsBaromVisibWave heightAir tempDewpointWater temp
2018-Feb-20 09:00N 49°48' W 065°24'3712.3 360 / 141025.4 -2.6-1.5-1.1
2018-Feb-20 06:00N 50°00' W 064°30'4314.3 300 / 151020.1 -1.3-0.2-1.2
2018-Feb-20 03:00N 49°54' W 063°24'4113.5 210 / 171019.5 -0.9 0.3-1.1
2018-Feb-20 00:00N 49°42' W 062°24'4113.6 210 / 201022.3 -1.8-0.6-1.1
2018-Feb-19 21:00N 49°30' W 061°24'4715.5 200 / 191026.3 -2.9-1.7-1.1
2018-Feb-19 18:00N 49°12' W 060°18'4314.4 220 / 171028.7 -2.6-1.4-0.9
2018-Feb-19 15:00N 49°12' W 059°12'3914.0 230 / 161031.5 -2.7-1.5-0.4
2018-Feb-19 12:14N 49°05' W 058°14'315.1
2018-Feb-19 12:00N 49°04' W 058°09'3178.0
2018-Feb-19 12:00N 49°06' W 058°06'715.0 140 / 51031.7 -5.3-4.2-0.0
2018-Feb-19 11:30N 48°59' W 058°03'2 4.1
2018-Feb-19 11:00N 48°58' W 058°01'0 0.0
2018-Feb-19 10:29N 48°58' W 058°01'0 0.0
2018-Feb-19 10:00N 48°58' W 058°01'0 0.0
2018-Feb-19 09:30N 48°58' W 058°01'0 0.0
2018-Feb-19 09:00N 48°58' W 058°01'4264.5
2018-Feb-19 09:00N 48°54' W 058°00'4 8.1 100 / 31029.2 -7.4-6.4
2018-Feb-19 08:31N 48°58' W 058°01'0 0.0
2018-Feb-19 08:00N 48°58' W 058°01'0 0.0
2018-Feb-19 07:30N 48°58' W 058°01'0 0.0
2018-Feb-19 07:01N 48°58' W 058°01'0 0.0
2018-Feb-19 06:30N 48°58' W 058°01'4 7.7
2018-Feb-19 06:00N 48°54' W 058°00'42002.8 130 / 21026.9 -7.7-6.6
2018-Feb-19 05:59N 48°58' W 058°01'0 0.0
2018-Feb-19 05:30N 48°58' W 058°01'0 0.0
2018-Feb-19 05:00N 48°58' W 058°01'0 0.0
2018-Feb-19 04:30N 48°58' W 058°01'0 0.0
2018-Feb-19 04:01N 48°58' W 058°01'0 0.0
2018-Feb-19 03:30N 48°58' W 058°01'0 0.0
2018-Feb-19 03:01N 48°58' W 058°01'4229.8
2018-Feb-19 03:00N 48°54' W 058°00'4 8.0 100 / 51024.3 -8.2-7.2
2018-Feb-19 02:30N 48°58' W 058°01'0 0.0
2018-Feb-19 01:59N 48°58' W 058°01'0 0.0
2018-Feb-19 01:27N 48°58' W 058°01'0 0.0
2018-Feb-19 01:00N 48°58' W 058°01'0 0.0
2018-Feb-19 00:31N 48°58' W 058°01'0 0.0
2018-Feb-19 00:00N 48°58' W 058°01'4298.3
2018-Feb-19 00:00N 48°54' W 058°00'4 8.1 170 / 11022.6 -8.0-6.9
2018-Feb-18 23:31N 48°58' W 058°01'0 0.0
2018-Feb-18 23:00N 48°58' W 058°01'0 0.0
2018-Feb-18 22:30N 48°58' W 058°01'0 0.0
2018-Feb-18 22:00N 48°58' W 058°01'0 0.0
2018-Feb-18 21:29N 48°58' W 058°01'0 0.0
2018-Feb-18 21:01N 48°58' W 058°01'4229.8
2018-Feb-18 21:00N 48°54' W 058°00'4 8.1 300 / 31021.1 -5.9-4.9
2018-Feb-18 20:31N 48°58' W 058°01'0 0.0
2018-Feb-18 20:00N 48°58' W 058°01'0 0.0
2018-Feb-18 19:31N 48°58' W 058°01'0 0.0
2018-Feb-18 19:00N 48°58' W 058°01'0 0.0
2018-Feb-18 18:30N 48°58' W 058°01'0 0.0
2018-Feb-18 18:00N 48°58' W 058°01'4667.6
2018-Feb-18 18:00N 48°54' W 058°00'4 7.7 190 / 41021.3 -6.3-5.3
2018-Feb-18 17:29N 48°58' W 058°01'0 0.0
2018-Feb-18 17:00N 48°58' W 058°01'0 0.0
2018-Feb-18 16:30N 48°58' W 058°01'0 0.0
2018-Feb-18 16:00N 48°58' W 058°01'0 0.0
2018-Feb-18 15:22N 48°58' W 058°01'0 0.0
2018-Feb-18 15:00N 48°58' W 058°01'4238.0
2018-Feb-18 15:00N 48°54' W 058°00'4 7.9 190 / 41024.3 -8.7-7.7
2018-Feb-18 14:30N 48°58' W 058°01'0 0.0
2018-Feb-18 14:00N 48°58' W 058°01'0 0.0
2018-Feb-18 13:30N 48°58' W 058°01'0 0.0
2018-Feb-18 12:14N 48°58' W 058°01'416.6
2018-Feb-18 12:00N 48°54' W 058°00'445.7 190 / 91025.0 -11.4-10.4
2018-Feb-18 11:54N 48°58' W 058°01'0 0.1
2018-Feb-18 11:30N 48°58' W 058°01'2 4.6
2018-Feb-18 11:00N 48°59' W 058°04'2 4.9
2018-Feb-18 10:31N 49°01' W 058°06'9 6.1
2018-Feb-18 09:00N 49°06' W 058°18'0 0.0 240 / 101025.5 -8.9-7.9
2018-Feb-18 06:00N 49°06' W 058°18'51 8.5 270 / 91025.8 -9.7-8.6
2018-Feb-18 00:00N 49°06' W 059°36'4815.9 300 / 231024.6 -11.5-10.5-0.4
2018-Feb-17 21:00N 49°00' W 060°48'4013.3 280 / 191024.3 -12.7-11.7-1.2
2018-Feb-17 18:00N 48°54' W 061°48'4013.3 280 / 181022.1 -13.4-12.4-1.2
2018-Feb-17 15:00N 48°48' W 062°48'4013.3 310 / 261020.5 -14.5-13.5-1.2
2018-Feb-17 12:00N 48°42' W 063°48'24 8.2 310 / 311018.0 -14.4-13.4-1.1
2018-Feb-17 09:00N 48°48' W 064°24'0 0.0 320 / 271012.6 -13.4-12.4
2018-Feb-17 06:00N 48°48' W 064°24'0 0.0 300 / 341004.8 -11.4-10.4
2018-Feb-17 03:00N 48°48' W 064°24'0 0.0 310 / 311000.3 -7.9-6.9
2018-Feb-17 00:00N 48°48' W 064°24'0 0.0 310 / 20999.1 -4.4-3.3
2018-Feb-16 21:00N 48°48' W 064°24'10 3.3 310 / 15997.0 -1.3-0.2-0.7
2018-Feb-16 18:00N 48°42' W 064°12'3812.6 350 / 11995.5 -0.7 0.4-1.0
2018-Feb-16 15:00N 49°18' W 064°30'4514.9 290 / 31995.5 -0.5 0.7-1.0
2018-Feb-16 12:00N 49°30' W 065°36'4214.1 260 / 31994.4 -0.8 0.4-1.1
2018-Feb-16 09:00N 49°54' W 066°30'13 4.3 330 / 6992.6 -2.2-1.1-1.1
2018-Feb-16 06:00N 50°00' W 066°48'0 0.0 070 / 12994.6 -2.8-1.6
2018-Feb-16 03:00N 50°00' W 066°48'0 0.0 070 / 15998.8 -3.0-1.9
2018-Feb-16 00:00N 50°00' W 066°48'7 2.4 080 / 141001.9 -3.3-2.2-0.4
2018-Feb-15 21:00N 49°54' W 066°54'0 0.0 080 / 91004.6 -3.6-2.5-0.9
2018-Feb-15 18:00N 49°54' W 066°54'0 0.0 170 / 41007.1 -2.2-1.1
2018-Feb-15 15:00N 49°54' W 066°54'12 4.0 100 / 21008.8 -2.8-1.6
2018-Feb-15 12:00N 49°42' W 066°54'4515.1 240 / 91008.8 -2.2-1.0-1.0
2018-Feb-15 09:00N 49°06' W 067°36'8313.8 280 / 81009.1 -1.5-0.3-0.9
2018-Feb-15 03:00N 48°18' W 069°18'4314.4 230 / 81010.2 -0.7 0.5 0.4
2018-Feb-15 00:00N 47°42' W 069°54'4113.8 210 / 201011.3 0.7 1.9-0.1
2018-Feb-14 21:00N 47°12' W 070°36'3112.2 220 / 231011.6 2.3 3.5 0.1
2018-Feb-14 18:29N 46°50' W 071°08'4 7.6
2018-Feb-14 18:00N 46°48' W 071°12'0 0.0 220 / 91015.7 -3.5-2.4 0.5
2018-Feb-14 15:00N 46°48' W 071°12'0 0.0 210 / 71019.6 -7.4-6.3
2018-Feb-14 12:00N 46°48' W 071°12'0 0.0 190 / 21021.1 -10.9-9.9
2018-Feb-14 09:00N 46°48' W 071°12'0 0.0 200 / 11023.9 -10.8-9.8
2018-Feb-14 06:00N 46°48' W 071°12'0 0.0 190 / 31028.7 -10.1-9.1
2018-Feb-14 03:00N 46°48' W 071°12'0 0.0 210 / 51032.3 -9.5-8.5
2018-Feb-14 00:00N 46°48' W 071°12'0 0.0 220 / 91036.0 -8.0-6.9
2018-Feb-13 21:00N 46°48' W 071°12'0 0.0 260 / 41038.8 -7.4-6.3
2018-Feb-13 18:00N 46°48' W 071°12'0 0.0 210 / 61042.2 -9.9-8.9 0.5
2018-Feb-13 15:00N 46°48' W 071°12'0 0.0 250 / 41044.4 -12.4-11.4
2018-Feb-13 12:00N 46°48' W 071°12'0 0.0 270 / 61043.2 -15.5-14.6
2018-Feb-13 09:00N 46°48' W 071°12'0 0.0 230 / 61040.5 -14.0-13.0
2018-Feb-13 06:00N 46°48' W 071°12'0 0.0 260 / 61038.5 -11.7-10.7
2018-Feb-13 03:00N 46°48' W 071°12'0 0.0 240 / 81035.3 -9.7-8.7
2018-Feb-13 00:00N 46°48' W 071°12'0 0.0 260 / 61031.4 -7.5-6.4
2018-Feb-12 21:00N 46°48' W 071°12'0 0.0 260 / 101027.0 -4.8-3.7
2018-Feb-12 18:00N 46°48' W 071°12'0 0.0 250 / 111024.3 -4.8-3.7
2018-Feb-12 15:00N 46°48' W 071°12'0 0.0 240 / 131022.3 -5.5-4.4
2018-Feb-12 12:00N 46°48' W 071°12'0 0.0 240 / 111018.0 -4.4-3.3
2018-Feb-12 06:00N 46°48' W 071°12'0 0.0 210 / 11006.5 -1.8-0.6
2018-Feb-12 03:00N 46°48' W 071°12'0 0.0 050 / 41005.4 -2.6-1.5
2018-Feb-12 00:00N 46°48' W 071°12'0 0.0 050 / 231009.5 -4.8-3.7
2018-Feb-11 18:00N 46°48' W 071°12'0 0.0 060 / 211021.6 -5.4-4.3
2018-Feb-11 15:00N 46°48' W 071°12'0 0.0 050 / 181025.0 -5.1-4.0
2018-Feb-11 12:00N 46°48' W 071°12'0 0.0 070 / 181024.5 -4.6-3.5
2018-Feb-11 06:00N 46°48' W 071°12'0 0.0 280 / 41022.3 -5.2-4.1
2018-Feb-11 03:00N 46°48' W 071°12'0 0.0 220 / 31022.0 -5.2-4.1
2018-Feb-11 00:00N 46°48' W 071°12'0 0.0 280 / 31021.9 -5.2-4.1
2018-Feb-10 21:00N 46°48' W 071°12'0 0.0 220 / 31020.8 -5.6-4.5
2018-Feb-10 18:00N 46°48' W 071°12'0 0.0 1022.1 -5.3-4.2
2018-Feb-10 15:00N 46°48' W 071°12'0 0.0 060 / 51024.3 -7.0-6.0
2018-Feb-10 12:00N 46°48' W 071°12'0 0.0 040 / 51024.9 -8.7-7.6
2018-Feb-10 09:00N 46°48' W 071°12'   050 / 21025.7 -9.9-8.9

Dump ship's entire track history